sensor_id;sensor_type;location;lat;lon;timestamp;P1;durP1;ratioP1;P2;durP2;ratioP2
65636;SDS011;52327;42.622;23.316;2023-04-10T00:01:27;1.63;;;1.30;;
65636;SDS011;52327;42.622;23.316;2023-04-10T00:03:59;1.88;;;1.55;;
65636;SDS011;52327;42.622;23.316;2023-04-10T00:06:24;1.60;;;1.20;;
65636;SDS011;52327;42.622;23.316;2023-04-10T00:08:52;2.25;;;1.52;;
65636;SDS011;52327;42.622;23.316;2023-04-10T00:11:17;3.53;;;1.55;;
65636;SDS011;52327;42.622;23.316;2023-04-10T00:13:42;1.85;;;1.13;;
65636;SDS011;52327;42.622;23.316;2023-04-10T00:16:08;4.30;;;1.67;;
65636;SDS011;52327;42.622;23.316;2023-04-10T00:18:33;2.13;;;1.38;;
65636;SDS011;52327;42.622;23.316;2023-04-10T00:20:58;3.75;;;1.58;;
65636;SDS011;52327;42.622;23.316;2023-04-10T00:23:24;3.53;;;1.65;;
65636;SDS011;52327;42.622;23.316;2023-04-10T00:25:50;1.08;;;0.68;;
65636;SDS011;52327;42.622;23.316;2023-04-10T00:28:15;1.85;;;1.63;;
65636;SDS011;52327;42.622;23.316;2023-04-10T00:30:41;5.13;;;1.45;;
65636;SDS011;52327;42.622;23.316;2023-04-10T00:33:06;2.80;;;1.83;;
65636;SDS011;52327;42.622;23.316;2023-04-10T00:35:32;2.63;;;1.80;;
65636;SDS011;52327;42.622;23.316;2023-04-10T00:37:57;2.25;;;1.73;;
65636;SDS011;52327;42.622;23.316;2023-04-10T00:40:23;4.38;;;2.15;;
65636;SDS011;52327;42.622;23.316;2023-04-10T00:42:48;2.55;;;1.17;;
65636;SDS011;52327;42.622;23.316;2023-04-10T00:45:14;2.80;;;1.45;;
65636;SDS011;52327;42.622;23.316;2023-04-10T00:47:39;1.17;;;0.98;;
65636;SDS011;52327;42.622;23.316;2023-04-10T00:50:05;1.73;;;1.33;;
65636;SDS011;52327;42.622;23.316;2023-04-10T00:52:31;3.63;;;1.58;;
65636;SDS011;52327;42.622;23.316;2023-04-10T00:54:57;3.00;;;1.17;;
65636;SDS011;52327;42.622;23.316;2023-04-10T00:57:22;2.92;;;2.13;;
65636;SDS011;52327;42.622;23.316;2023-04-10T00:59:48;3.03;;;2.05;;
65636;SDS011;52327;42.622;23.316;2023-04-10T01:02:16;2.83;;;1.35;;
65636;SDS011;52327;42.622;23.316;2023-04-10T01:04:41;3.42;;;1.95;;
65636;SDS011;52327;42.622;23.316;2023-04-10T01:12:54;3.83;;;1.80;;
65636;SDS011;52327;42.622;23.316;2023-04-10T01:15:31;1.25;;;1.10;;
65636;SDS011;52327;42.622;23.316;2023-04-10T01:18:23;2.40;;;1.60;;
65636;SDS011;52327;42.622;23.316;2023-04-10T01:20:55;4.28;;;1.90;;
65636;SDS011;52327;42.622;23.316;2023-04-10T01:26:05;2.85;;;1.45;;
65636;SDS011;52327;42.622;23.316;2023-04-10T01:34:15;2.58;;;1.48;;
65636;SDS011;52327;42.622;23.316;2023-04-10T01:36:48;1.92;;;1.20;;
65636;SDS011;52327;42.622;23.316;2023-04-10T01:39:20;2.20;;;1.48;;
65636;SDS011;52327;42.622;23.316;2023-04-10T01:41:49;1.15;;;1.05;;
65636;SDS011;52327;42.622;23.316;2023-04-10T01:44:18;1.38;;;1.05;;
65636;SDS011;52327;42.622;23.316;2023-04-10T01:46:47;1.17;;;1.10;;
65636;SDS011;52327;42.622;23.316;2023-04-10T01:49:13;1.65;;;1.10;;
65636;SDS011;52327;42.622;23.316;2023-04-10T01:51:40;4.07;;;1.70;;
65636;SDS011;52327;42.622;23.316;2023-04-10T01:54:06;4.03;;;1.70;;
65636;SDS011;52327;42.622;23.316;2023-04-10T01:56:33;1.67;;;1.23;;
65636;SDS011;52327;42.622;23.316;2023-04-10T01:58:58;4.28;;;1.67;;
65636;SDS011;52327;42.622;23.316;2023-04-10T02:01:24;1.85;;;1.30;;
65636;SDS011;52327;42.622;23.316;2023-04-10T02:03:49;1.83;;;1.20;;
65636;SDS011;52327;42.622;23.316;2023-04-10T02:06:39;2.20;;;1.10;;
65636;SDS011;52327;42.622;23.316;2023-04-10T02:09:21;1.63;;;1.20;;
65636;SDS011;52327;42.622;23.316;2023-04-10T02:11:53;3.30;;;1.70;;
65636;SDS011;52327;42.622;23.316;2023-04-10T02:14:22;2.03;;;1.45;;
65636;SDS011;52327;42.622;23.316;2023-04-10T02:16:53;1.73;;;1.25;;
65636;SDS011;52327;42.622;23.316;2023-04-10T02:19:20;2.40;;;1.20;;
65636;SDS011;52327;42.622;23.316;2023-04-10T02:21:47;3.53;;;1.73;;
65636;SDS011;52327;42.622;23.316;2023-04-10T02:24:14;4.60;;;2.20;;
65636;SDS011;52327;42.622;23.316;2023-04-10T02:26:46;1.73;;;1.25;;
65636;SDS011;52327;42.622;23.316;2023-04-10T02:29:12;2.28;;;1.70;;
65636;SDS011;52327;42.622;23.316;2023-04-10T02:31:38;2.67;;;1.60;;
65636;SDS011;52327;42.622;23.316;2023-04-10T02:34:05;3.15;;;1.25;;
65636;SDS011;52327;42.622;23.316;2023-04-10T02:36:31;1.67;;;1.58;;
65636;SDS011;52327;42.622;23.316;2023-04-10T02:38:56;2.67;;;1.58;;
65636;SDS011;52327;42.622;23.316;2023-04-10T02:41:22;4.13;;;2.05;;
65636;SDS011;52327;42.622;23.316;2023-04-10T02:43:48;3.70;;;1.42;;
65636;SDS011;52327;42.622;23.316;2023-04-10T02:46:13;5.45;;;1.83;;
65636;SDS011;52327;42.622;23.316;2023-04-10T02:48:39;2.30;;;1.20;;
65636;SDS011;52327;42.622;23.316;2023-04-10T02:51:04;2.80;;;1.70;;
65636;SDS011;52327;42.622;23.316;2023-04-10T02:53:32;2.47;;;1.67;;
65636;SDS011;52327;42.622;23.316;2023-04-10T02:55:58;3.33;;;1.40;;
65636;SDS011;52327;42.622;23.316;2023-04-10T02:58:23;2.92;;;1.48;;
65636;SDS011;52327;42.622;23.316;2023-04-10T03:00:49;2.13;;;1.40;;
65636;SDS011;52327;42.622;23.316;2023-04-10T03:03:17;1.27;;;1.05;;
65636;SDS011;52327;42.622;23.316;2023-04-10T03:05:43;2.97;;;1.52;;
65636;SDS011;52327;42.622;23.316;2023-04-10T03:08:11;4.68;;;1.90;;
65636;SDS011;52327;42.622;23.316;2023-04-10T03:10:37;3.92;;;2.15;;
65636;SDS011;52327;42.622;23.316;2023-04-10T03:13:02;1.83;;;1.55;;
65636;SDS011;52327;42.622;23.316;2023-04-10T03:15:28;1.50;;;0.75;;
65636;SDS011;52327;42.622;23.316;2023-04-10T03:17:53;6.45;;;2.08;;
65636;SDS011;52327;42.622;23.316;2023-04-10T03:20:19;1.27;;;1.08;;
65636;SDS011;52327;42.622;23.316;2023-04-10T03:22:44;4.88;;;1.67;;
65636;SDS011;52327;42.622;23.316;2023-04-10T03:25:09;2.70;;;1.65;;
65636;SDS011;52327;42.622;23.316;2023-04-10T03:27:35;1.40;;;1.30;;
65636;SDS011;52327;42.622;23.316;2023-04-10T03:30:00;4.82;;;1.35;;
65636;SDS011;52327;42.622;23.316;2023-04-10T03:32:27;2.92;;;1.45;;
65636;SDS011;52327;42.622;23.316;2023-04-10T03:34:55;1.50;;;0.90;;
65636;SDS011;52327;42.622;23.316;2023-04-10T03:37:21;2.47;;;1.30;;
65636;SDS011;52327;42.622;23.316;2023-04-10T03:39:46;2.88;;;1.50;;
65636;SDS011;52327;42.622;23.316;2023-04-10T03:42:12;3.03;;;1.30;;
65636;SDS011;52327;42.622;23.316;2023-04-10T03:44:37;2.50;;;1.50;;
65636;SDS011;52327;42.622;23.316;2023-04-10T03:47:03;2.28;;;1.65;;
65636;SDS011;52327;42.622;23.316;2023-04-10T03:49:28;2.70;;;1.65;;
65636;SDS011;52327;42.622;23.316;2023-04-10T03:51:53;3.83;;;1.40;;
65636;SDS011;52327;42.622;23.316;2023-04-10T03:54:19;2.17;;;1.65;;
65636;SDS011;52327;42.622;23.316;2023-04-10T03:56:44;3.00;;;2.22;;
65636;SDS011;52327;42.622;23.316;2023-04-10T03:59:10;2.28;;;1.63;;
65636;SDS011;52327;42.622;23.316;2023-04-10T04:01:35;1.20;;;1.10;;
65636;SDS011;52327;42.622;23.316;2023-04-10T04:04:01;3.20;;;1.70;;
65636;SDS011;52327;42.622;23.316;2023-04-10T04:06:26;2.08;;;1.42;;
65636;SDS011;52327;42.622;23.316;2023-04-10T04:08:52;1.50;;;1.35;;
65636;SDS011;52327;42.622;23.316;2023-04-10T04:11:17;2.08;;;1.55;;
65636;SDS011;52327;42.622;23.316;2023-04-10T04:13:43;1.08;;;0.98;;
65636;SDS011;52327;42.622;23.316;2023-04-10T04:16:08;1.40;;;1.10;;
65636;SDS011;52327;42.622;23.316;2023-04-10T04:18:34;4.00;;;2.13;;
65636;SDS011;52327;42.622;23.316;2023-04-10T04:21:00;1.67;;;1.33;;
65636;SDS011;52327;42.622;23.316;2023-04-10T04:23:25;3.03;;;2.00;;
65636;SDS011;52327;42.622;23.316;2023-04-10T04:25:51;7.00;;;3.83;;
65636;SDS011;52327;42.622;23.316;2023-04-10T04:28:18;6.40;;;3.75;;
65636;SDS011;52327;42.622;23.316;2023-04-10T04:30:43;8.40;;;3.50;;
65636;SDS011;52327;42.622;23.316;2023-04-10T04:33:09;7.55;;;4.25;;
65636;SDS011;52327;42.622;23.316;2023-04-10T04:35:34;4.65;;;3.50;;
65636;SDS011;52327;42.622;23.316;2023-04-10T04:38:00;6.50;;;3.97;;
65636;SDS011;52327;42.622;23.316;2023-04-10T04:40:25;6.20;;;3.38;;
65636;SDS011;52327;42.622;23.316;2023-04-10T04:42:51;3.53;;;2.28;;
65636;SDS011;52327;42.622;23.316;2023-04-10T04:45:16;6.88;;;2.50;;
65636;SDS011;52327;42.622;23.316;2023-04-10T04:47:42;3.33;;;2.60;;
65636;SDS011;52327;42.622;23.316;2023-04-10T04:50:08;4.97;;;2.72;;
65636;SDS011;52327;42.622;23.316;2023-04-10T04:52:34;2.75;;;2.08;;
65636;SDS011;52327;42.622;23.316;2023-04-10T04:54:59;3.58;;;1.90;;
65636;SDS011;52327;42.622;23.316;2023-04-10T04:57:25;4.53;;;2.60;;
65636;SDS011;52327;42.622;23.316;2023-04-10T04:59:50;2.03;;;1.38;;
65636;SDS011;52327;42.622;23.316;2023-04-10T05:02:16;3.25;;;1.58;;
65636;SDS011;52327;42.622;23.316;2023-04-10T05:04:42;2.22;;;1.98;;
65636;SDS011;52327;42.622;23.316;2023-04-10T05:07:08;4.45;;;2.03;;
65636;SDS011;52327;42.622;23.316;2023-04-10T05:09:34;3.20;;;2.03;;
65636;SDS011;52327;42.622;23.316;2023-04-10T05:12:00;4.45;;;2.28;;
65636;SDS011;52327;42.622;23.316;2023-04-10T05:14:26;4.47;;;2.40;;
65636;SDS011;52327;42.622;23.316;2023-04-10T05:16:51;5.15;;;2.38;;
65636;SDS011;52327;42.622;23.316;2023-04-10T05:19:17;3.85;;;2.47;;
65636;SDS011;52327;42.622;23.316;2023-04-10T05:21:42;3.15;;;2.10;;
65636;SDS011;52327;42.622;23.316;2023-04-10T05:24:08;5.30;;;2.40;;
65636;SDS011;52327;42.622;23.316;2023-04-10T05:26:33;4.32;;;3.00;;
65636;SDS011;52327;42.622;23.316;2023-04-10T05:28:59;9.43;;;3.33;;
65636;SDS011;52327;42.622;23.316;2023-04-10T05:31:24;5.78;;;3.33;;
65636;SDS011;52327;42.622;23.316;2023-04-10T05:33:50;5.90;;;3.67;;
65636;SDS011;52327;42.622;23.316;2023-04-10T05:36:15;5.10;;;2.67;;
65636;SDS011;52327;42.622;23.316;2023-04-10T05:38:42;5.85;;;2.50;;
65636;SDS011;52327;42.622;23.316;2023-04-10T05:41:08;3.20;;;2.00;;
65636;SDS011;52327;42.622;23.316;2023-04-10T05:43:33;4.93;;;2.72;;
65636;SDS011;52327;42.622;23.316;2023-04-10T05:45:59;3.95;;;2.33;;
65636;SDS011;52327;42.622;23.316;2023-04-10T05:48:24;3.03;;;1.85;;
65636;SDS011;52327;42.622;23.316;2023-04-10T05:50:50;3.15;;;2.25;;
65636;SDS011;52327;42.622;23.316;2023-04-10T05:53:18;6.47;;;2.78;;
65636;SDS011;52327;42.622;23.316;2023-04-10T05:55:44;6.72;;;3.17;;
65636;SDS011;52327;42.622;23.316;2023-04-10T05:58:09;2.97;;;2.25;;
65636;SDS011;52327;42.622;23.316;2023-04-10T06:00:35;5.18;;;3.88;;
65636;SDS011;52327;42.622;23.316;2023-04-10T06:03:01;6.47;;;3.22;;
65636;SDS011;52327;42.622;23.316;2023-04-10T06:05:27;4.47;;;2.65;;
65636;SDS011;52327;42.622;23.316;2023-04-10T06:07:53;2.60;;;2.22;;
65636;SDS011;52327;42.622;23.316;2023-04-10T06:10:18;5.35;;;2.67;;
65636;SDS011;52327;42.622;23.316;2023-04-10T06:12:44;5.97;;;3.53;;
65636;SDS011;52327;42.622;23.316;2023-04-10T06:15:09;4.15;;;1.80;;
65636;SDS011;52327;42.622;23.316;2023-04-10T06:17:40;5.00;;;3.25;;
65636;SDS011;52327;42.622;23.316;2023-04-10T06:20:07;4.53;;;2.55;;
65636;SDS011;52327;42.622;23.316;2023-04-10T06:22:33;5.88;;;3.63;;
65636;SDS011;52327;42.622;23.316;2023-04-10T06:24:58;5.35;;;2.92;;
65636;SDS011;52327;42.622;23.316;2023-04-10T06:27:24;6.20;;;3.35;;
65636;SDS011;52327;42.622;23.316;2023-04-10T06:29:49;4.10;;;2.63;;
65636;SDS011;52327;42.622;23.316;2023-04-10T06:32:15;5.40;;;2.63;;
65636;SDS011;52327;42.622;23.316;2023-04-10T06:34:40;4.55;;;2.60;;
65636;SDS011;52327;42.622;23.316;2023-04-10T06:37:06;3.72;;;3.30;;
65636;SDS011;52327;42.622;23.316;2023-04-10T06:39:31;5.78;;;3.28;;
65636;SDS011;52327;42.622;23.316;2023-04-10T06:41:57;6.30;;;3.70;;
65636;SDS011;52327;42.622;23.316;2023-04-10T06:44:22;5.80;;;3.22;;
65636;SDS011;52327;42.622;23.316;2023-04-10T06:46:47;5.53;;;2.88;;
65636;SDS011;52327;42.622;23.316;2023-04-10T06:49:13;6.15;;;3.58;;
65636;SDS011;52327;42.622;23.316;2023-04-10T06:51:38;4.45;;;2.88;;
65636;SDS011;52327;42.622;23.316;2023-04-10T06:54:04;7.53;;;3.30;;
65636;SDS011;52327;42.622;23.316;2023-04-10T06:56:29;4.78;;;2.15;;
65636;SDS011;52327;42.622;23.316;2023-04-10T06:58:55;8.85;;;3.65;;
65636;SDS011;52327;42.622;23.316;2023-04-10T07:01:21;4.80;;;3.10;;
65636;SDS011;52327;42.622;23.316;2023-04-10T07:03:47;4.22;;;2.42;;
65636;SDS011;52327;42.622;23.316;2023-04-10T07:06:12;5.10;;;3.13;;
65636;SDS011;52327;42.622;23.316;2023-04-10T07:08:38;6.68;;;3.30;;
65636;SDS011;52327;42.622;23.316;2023-04-10T07:11:03;6.05;;;3.03;;
65636;SDS011;52327;42.622;23.316;2023-04-10T07:13:29;6.13;;;2.97;;
65636;SDS011;52327;42.622;23.316;2023-04-10T07:15:54;5.97;;;3.08;;
65636;SDS011;52327;42.622;23.316;2023-04-10T07:18:20;4.15;;;2.35;;
65636;SDS011;52327;42.622;23.316;2023-04-10T07:20:45;5.43;;;3.45;;
65636;SDS011;52327;42.622;23.316;2023-04-10T07:23:11;7.32;;;3.30;;
65636;SDS011;52327;42.622;23.316;2023-04-10T07:25:36;5.80;;;3.33;;
65636;SDS011;52327;42.622;23.316;2023-04-10T07:28:01;5.95;;;2.90;;
65636;SDS011;52327;42.622;23.316;2023-04-10T07:30:27;6.30;;;3.72;;
65636;SDS011;52327;42.622;23.316;2023-04-10T07:32:52;5.90;;;2.60;;
65636;SDS011;52327;42.622;23.316;2023-04-10T07:35:18;7.10;;;3.63;;
65636;SDS011;52327;42.622;23.316;2023-04-10T07:37:44;5.45;;;3.75;;
65636;SDS011;52327;42.622;23.316;2023-04-10T07:40:10;8.48;;;3.33;;
65636;SDS011;52327;42.622;23.316;2023-04-10T07:42:36;5.95;;;3.40;;
65636;SDS011;52327;42.622;23.316;2023-04-10T07:45:01;5.18;;;3.03;;
65636;SDS011;52327;42.622;23.316;2023-04-10T07:47:27;3.88;;;2.65;;
65636;SDS011;52327;42.622;23.316;2023-04-10T07:49:52;6.03;;;3.08;;
65636;SDS011;52327;42.622;23.316;2023-04-10T07:52:18;5.43;;;3.35;;
65636;SDS011;52327;42.622;23.316;2023-04-10T07:54:43;4.25;;;2.63;;
65636;SDS011;52327;42.622;23.316;2023-04-10T07:57:09;7.68;;;4.65;;
65636;SDS011;52327;42.622;23.316;2023-04-10T07:59:34;7.65;;;4.70;;
65636;SDS011;52327;42.622;23.316;2023-04-10T08:02:00;5.53;;;3.33;;
65636;SDS011;52327;42.622;23.316;2023-04-10T08:04:25;13.88;;;3.30;;
65636;SDS011;52327;42.622;23.316;2023-04-10T08:06:50;5.85;;;3.30;;
65636;SDS011;52327;42.622;23.316;2023-04-10T08:09:16;7.88;;;4.38;;
65636;SDS011;52327;42.622;23.316;2023-04-10T08:11:42;6.18;;;3.28;;
65636;SDS011;52327;42.622;23.316;2023-04-10T08:14:07;5.25;;;3.38;;
65636;SDS011;52327;42.622;23.316;2023-04-10T08:16:33;5.63;;;3.45;;
65636;SDS011;52327;42.622;23.316;2023-04-10T08:19:00;8.05;;;4.22;;
65636;SDS011;52327;42.622;23.316;2023-04-10T08:21:26;6.63;;;3.45;;
65636;SDS011;52327;42.622;23.316;2023-04-10T08:23:53;6.35;;;3.60;;
65636;SDS011;52327;42.622;23.316;2023-04-10T08:26:19;6.60;;;4.18;;
65636;SDS011;52327;42.622;23.316;2023-04-10T08:28:48;5.45;;;2.80;;
65636;SDS011;52327;42.622;23.316;2023-04-10T08:31:15;5.57;;;2.85;;
65636;SDS011;52327;42.622;23.316;2023-04-10T08:33:41;7.78;;;3.75;;
65636;SDS011;52327;42.622;23.316;2023-04-10T08:36:07;4.75;;;2.67;;
65636;SDS011;52327;42.622;23.316;2023-04-10T08:38:33;7.68;;;4.05;;
65636;SDS011;52327;42.622;23.316;2023-04-10T08:40:59;10.25;;;3.95;;
65636;SDS011;52327;42.622;23.316;2023-04-10T08:43:24;5.97;;;3.47;;
65636;SDS011;52327;42.622;23.316;2023-04-10T08:45:51;7.28;;;4.03;;
65636;SDS011;52327;42.622;23.316;2023-04-10T08:48:20;5.82;;;2.92;;
65636;SDS011;52327;42.622;23.316;2023-04-10T08:50:49;4.55;;;2.78;;
65636;SDS011;52327;42.622;23.316;2023-04-10T08:53:15;7.63;;;3.13;;
65636;SDS011;52327;42.622;23.316;2023-04-10T08:55:44;4.70;;;2.78;;
65636;SDS011;52327;42.622;23.316;2023-04-10T08:58:10;5.38;;;3.08;;
65636;SDS011;52327;42.622;23.316;2023-04-10T09:00:38;4.55;;;3.40;;
65636;SDS011;52327;42.622;23.316;2023-04-10T09:03:04;4.85;;;2.97;;
65636;SDS011;52327;42.622;23.316;2023-04-10T09:05:32;7.50;;;3.70;;
65636;SDS011;52327;42.622;23.316;2023-04-10T09:08:00;3.90;;;2.47;;
65636;SDS011;52327;42.622;23.316;2023-04-10T09:10:25;8.35;;;4.32;;
65636;SDS011;52327;42.622;23.316;2023-04-10T09:12:50;5.13;;;2.85;;
65636;SDS011;52327;42.622;23.316;2023-04-10T09:15:16;6.15;;;3.13;;
65636;SDS011;52327;42.622;23.316;2023-04-10T09:20:20;5.30;;;3.17;;
65636;SDS011;52327;42.622;23.316;2023-04-10T09:22:47;4.38;;;2.75;;
65636;SDS011;52327;42.622;23.316;2023-04-10T09:25:27;5.65;;;3.00;;
65636;SDS011;52327;42.622;23.316;2023-04-10T09:27:58;3.78;;;2.25;;
65636;SDS011;52327;42.622;23.316;2023-04-10T09:30:37;18.23;;;3.33;;
65636;SDS011;52327;42.622;23.316;2023-04-10T09:35:47;4.78;;;3.03;;
65636;SDS011;52327;42.622;23.316;2023-04-10T09:38:13;7.18;;;3.53;;
65636;SDS011;52327;42.622;23.316;2023-04-10T09:40:43;5.35;;;3.20;;
65636;SDS011;52327;42.622;23.316;2023-04-10T09:45:52;5.80;;;3.55;;
65636;SDS011;52327;42.622;23.316;2023-04-10T09:48:21;6.43;;;3.00;;
65636;SDS011;52327;42.622;23.316;2023-04-10T09:50:47;6.72;;;3.25;;
65636;SDS011;52327;42.622;23.316;2023-04-10T09:53:14;5.57;;;3.35;;
65636;SDS011;52327;42.622;23.316;2023-04-10T09:55:43;3.85;;;3.00;;
65636;SDS011;52327;42.622;23.316;2023-04-10T09:58:10;4.03;;;2.78;;
65636;SDS011;52327;42.622;23.316;2023-04-10T10:00:46;5.82;;;3.35;;
65636;SDS011;52327;42.622;23.316;2023-04-10T10:03:17;8.68;;;4.07;;
65636;SDS011;52327;42.622;23.316;2023-04-10T10:05:47;5.38;;;3.30;;
65636;SDS011;52327;42.622;23.316;2023-04-10T10:08:14;4.78;;;2.92;;
65636;SDS011;52327;42.622;23.316;2023-04-10T10:10:45;9.32;;;3.35;;
65636;SDS011;52327;42.622;23.316;2023-04-10T10:13:19;7.50;;;2.95;;
65636;SDS011;52327;42.622;23.316;2023-04-10T10:15:51;5.72;;;3.25;;
65636;SDS011;52327;42.622;23.316;2023-04-10T10:21:02;5.38;;;2.83;;
65636;SDS011;52327;42.622;23.316;2023-04-10T10:23:29;4.47;;;2.92;;
65636;SDS011;52327;42.622;23.316;2023-04-10T10:25:57;4.07;;;2.63;;
65636;SDS011;52327;42.622;23.316;2023-04-10T10:28:24;10.80;;;4.13;;
65636;SDS011;52327;42.622;23.316;2023-04-10T10:30:52;4.68;;;2.80;;
65636;SDS011;52327;42.622;23.316;2023-04-10T10:33:18;5.53;;;3.05;;
65636;SDS011;52327;42.622;23.316;2023-04-10T10:35:44;5.03;;;2.88;;
65636;SDS011;52327;42.622;23.316;2023-04-10T10:38:10;4.57;;;2.35;;
65636;SDS011;52327;42.622;23.316;2023-04-10T10:46:36;2.90;;;2.40;;
65636;SDS011;52327;42.622;23.316;2023-04-10T10:49:07;3.65;;;2.60;;
65636;SDS011;52327;42.622;23.316;2023-04-10T10:57:00;5.43;;;3.00;;
65636;SDS011;52327;42.622;23.316;2023-04-10T11:04:45;4.65;;;3.00;;
65636;SDS011;52327;42.622;23.316;2023-04-10T11:07:13;5.07;;;2.42;;
65636;SDS011;52327;42.622;23.316;2023-04-10T11:09:43;4.38;;;3.33;;
65636;SDS011;52327;42.622;23.316;2023-04-10T11:12:15;4.32;;;2.58;;
65636;SDS011;52327;42.622;23.316;2023-04-10T11:14:57;3.75;;;3.00;;
65636;SDS011;52327;42.622;23.316;2023-04-10T11:20:15;4.93;;;2.75;;
65636;SDS011;52327;42.622;23.316;2023-04-10T11:23:27;2.95;;;2.03;;
65636;SDS011;52327;42.622;23.316;2023-04-10T11:25:51;4.05;;;2.80;;
65636;SDS011;52327;42.622;23.316;2023-04-10T11:28:36;4.32;;;2.55;;
65636;SDS011;52327;42.622;23.316;2023-04-10T11:34:04;3.97;;;2.72;;
65636;SDS011;52327;42.622;23.316;2023-04-10T11:36:31;4.88;;;2.47;;
65636;SDS011;52327;42.622;23.316;2023-04-10T11:39:02;5.18;;;2.58;;
65636;SDS011;52327;42.622;23.316;2023-04-10T11:41:37;4.07;;;2.70;;
65636;SDS011;52327;42.622;23.316;2023-04-10T11:44:05;5.22;;;2.83;;
65636;SDS011;52327;42.622;23.316;2023-04-10T11:46:36;3.78;;;2.65;;
65636;SDS011;52327;42.622;23.316;2023-04-10T11:49:04;4.80;;;2.72;;
65636;SDS011;52327;42.622;23.316;2023-04-10T11:51:30;5.35;;;2.80;;
65636;SDS011;52327;42.622;23.316;2023-04-10T11:54:04;5.35;;;2.33;;
65636;SDS011;52327;42.622;23.316;2023-04-10T11:56:31;5.38;;;2.22;;
65636;SDS011;52327;42.622;23.316;2023-04-10T11:58:56;3.97;;;2.38;;
65636;SDS011;52327;42.622;23.316;2023-04-10T12:01:22;2.85;;;2.00;;
65636;SDS011;52327;42.622;23.316;2023-04-10T12:03:48;2.42;;;1.80;;
65636;SDS011;52327;42.622;23.316;2023-04-10T12:06:14;3.03;;;1.70;;
65636;SDS011;52327;42.622;23.316;2023-04-10T12:08:43;4.00;;;2.67;;
65636;SDS011;52327;42.622;23.316;2023-04-10T12:11:24;5.13;;;2.75;;
65636;SDS011;52327;42.622;23.316;2023-04-10T12:13:51;6.97;;;2.78;;
65636;SDS011;52327;42.622;23.316;2023-04-10T12:16:18;4.00;;;2.60;;
65636;SDS011;52327;42.622;23.316;2023-04-10T12:18:43;4.63;;;3.42;;
65636;SDS011;52327;42.622;23.316;2023-04-10T12:21:09;5.95;;;3.20;;
65636;SDS011;52327;42.622;23.316;2023-04-10T12:23:36;5.28;;;3.25;;
65636;SDS011;52327;42.622;23.316;2023-04-10T12:26:09;4.85;;;2.10;;
65636;SDS011;52327;42.622;23.316;2023-04-10T12:28:37;6.47;;;3.28;;
65636;SDS011;52327;42.622;23.316;2023-04-10T12:31:04;9.05;;;3.72;;
65636;SDS011;52327;42.622;23.316;2023-04-10T12:33:30;6.43;;;3.10;;
65636;SDS011;52327;42.622;23.316;2023-04-10T12:35:55;7.28;;;3.78;;
65636;SDS011;52327;42.622;23.316;2023-04-10T12:38:42;5.63;;;3.03;;
65636;SDS011;52327;42.622;23.316;2023-04-10T12:41:09;6.13;;;2.80;;
65636;SDS011;52327;42.622;23.316;2023-04-10T12:43:36;5.47;;;2.38;;
65636;SDS011;52327;42.622;23.316;2023-04-10T12:46:04;2.13;;;1.23;;
65636;SDS011;52327;42.622;23.316;2023-04-10T12:48:30;3.03;;;1.83;;
65636;SDS011;52327;42.622;23.316;2023-04-10T12:50:55;5.50;;;1.85;;
65636;SDS011;52327;42.622;23.316;2023-04-10T12:53:21;2.30;;;1.63;;
65636;SDS011;52327;42.622;23.316;2023-04-10T12:55:57;2.95;;;1.98;;
65636;SDS011;52327;42.622;23.316;2023-04-10T12:58:27;3.13;;;1.85;;
65636;SDS011;52327;42.622;23.316;2023-04-10T13:00:55;4.07;;;2.20;;
65636;SDS011;52327;42.622;23.316;2023-04-10T13:03:27;3.35;;;2.17;;
65636;SDS011;52327;42.622;23.316;2023-04-10T13:05:52;2.65;;;1.67;;
65636;SDS011;52327;42.622;23.316;2023-04-10T13:08:18;3.58;;;2.28;;
65636;SDS011;52327;42.622;23.316;2023-04-10T13:10:44;3.45;;;1.35;;
65636;SDS011;52327;42.622;23.316;2023-04-10T13:13:09;2.40;;;1.58;;
65636;SDS011;52327;42.622;23.316;2023-04-10T13:15:38;2.45;;;1.95;;
65636;SDS011;52327;42.622;23.316;2023-04-10T13:18:05;2.67;;;1.73;;
65636;SDS011;52327;42.622;23.316;2023-04-10T13:20:31;2.88;;;1.98;;
65636;SDS011;52327;42.622;23.316;2023-04-10T13:22:58;3.97;;;1.98;;
65636;SDS011;52327;42.622;23.316;2023-04-10T13:25:23;3.47;;;2.00;;
65636;SDS011;52327;42.622;23.316;2023-04-10T13:27:49;2.25;;;1.85;;
65636;SDS011;52327;42.622;23.316;2023-04-10T13:30:16;3.50;;;2.15;;
65636;SDS011;52327;42.622;23.316;2023-04-10T13:32:42;2.92;;;1.67;;
65636;SDS011;52327;42.622;23.316;2023-04-10T13:35:07;2.35;;;1.50;;
65636;SDS011;52327;42.622;23.316;2023-04-10T13:37:33;1.90;;;1.45;;
65636;SDS011;52327;42.622;23.316;2023-04-10T13:39:59;2.60;;;1.60;;
65636;SDS011;52327;42.622;23.316;2023-04-10T13:42:27;2.53;;;1.20;;
65636;SDS011;52327;42.622;23.316;2023-04-10T13:44:53;3.25;;;1.88;;
65636;SDS011;52327;42.622;23.316;2023-04-10T13:47:18;3.13;;;2.13;;
65636;SDS011;52327;42.622;23.316;2023-04-10T13:49:43;4.40;;;2.63;;
65636;SDS011;52327;42.622;23.316;2023-04-10T13:52:09;3.00;;;2.05;;
65636;SDS011;52327;42.622;23.316;2023-04-10T13:54:34;5.40;;;2.80;;
65636;SDS011;52327;42.622;23.316;2023-04-10T13:57:00;4.32;;;2.38;;
65636;SDS011;52327;42.622;23.316;2023-04-10T13:59:26;4.45;;;2.40;;
65636;SDS011;52327;42.622;23.316;2023-04-10T14:01:52;4.13;;;2.78;;
65636;SDS011;52327;42.622;23.316;2023-04-10T14:04:17;3.85;;;2.20;;
65636;SDS011;52327;42.622;23.316;2023-04-10T14:06:43;2.40;;;1.73;;
65636;SDS011;52327;42.622;23.316;2023-04-10T14:09:08;3.13;;;2.40;;
65636;SDS011;52327;42.622;23.316;2023-04-10T14:11:34;3.33;;;2.45;;
65636;SDS011;52327;42.622;23.316;2023-04-10T14:13:59;5.85;;;2.88;;
65636;SDS011;52327;42.622;23.316;2023-04-10T14:16:25;4.93;;;3.22;;
65636;SDS011;52327;42.622;23.316;2023-04-10T14:18:50;5.43;;;3.15;;
65636;SDS011;52327;42.622;23.316;2023-04-10T14:21:16;4.45;;;3.40;;
65636;SDS011;52327;42.622;23.316;2023-04-10T14:23:41;4.40;;;2.95;;
65636;SDS011;52327;42.622;23.316;2023-04-10T14:26:07;3.70;;;2.70;;
65636;SDS011;52327;42.622;23.316;2023-04-10T14:28:32;5.40;;;3.30;;
65636;SDS011;52327;42.622;23.316;2023-04-10T14:30:58;7.82;;;3.83;;
65636;SDS011;52327;42.622;23.316;2023-04-10T14:33:25;4.03;;;3.03;;
65636;SDS011;52327;42.622;23.316;2023-04-10T14:35:51;5.68;;;2.88;;
65636;SDS011;52327;42.622;23.316;2023-04-10T14:38:17;4.90;;;2.42;;
65636;SDS011;52327;42.622;23.316;2023-04-10T14:40:42;2.00;;;1.58;;
65636;SDS011;52327;42.622;23.316;2023-04-10T14:43:10;4.30;;;2.30;;
65636;SDS011;52327;42.622;23.316;2023-04-10T14:45:35;3.83;;;2.60;;
65636;SDS011;52327;42.622;23.316;2023-04-10T14:48:01;2.22;;;1.40;;
65636;SDS011;52327;42.622;23.316;2023-04-10T14:50:26;5.45;;;3.05;;
65636;SDS011;52327;42.622;23.316;2023-04-10T14:52:52;4.28;;;2.80;;
65636;SDS011;52327;42.622;23.316;2023-04-10T14:55:17;4.03;;;2.67;;
65636;SDS011;52327;42.622;23.316;2023-04-10T14:57:43;4.55;;;2.67;;
65636;SDS011;52327;42.622;23.316;2023-04-10T15:00:08;3.42;;;1.67;;
65636;SDS011;52327;42.622;23.316;2023-04-10T15:02:34;3.55;;;1.90;;
65636;SDS011;52327;42.622;23.316;2023-04-10T15:05:00;3.28;;;1.65;;
65636;SDS011;52327;42.622;23.316;2023-04-10T15:07:25;3.50;;;2.58;;
65636;SDS011;52327;42.622;23.316;2023-04-10T15:09:55;3.58;;;2.03;;
65636;SDS011;52327;42.622;23.316;2023-04-10T15:12:21;4.78;;;1.90;;
65636;SDS011;52327;42.622;23.316;2023-04-10T15:14:48;3.03;;;1.80;;
65636;SDS011;52327;42.622;23.316;2023-04-10T15:17:14;3.95;;;2.53;;
65636;SDS011;52327;42.622;23.316;2023-04-10T15:19:40;2.08;;;1.58;;